sensor_id;sensor_type;location;lat;lon;timestamp;temperature;humidity
71514;DHT22;59335;46.652;21.272;2022-11-06T00:01:53;22.64;53.34
71514;DHT22;59335;46.652;21.272;2022-11-06T00:04:56;22.63;53.35
71514;DHT22;59335;46.652;21.272;2022-11-06T00:08:29;22.63;53.35
71514;DHT22;59335;46.652;21.272;2022-11-06T00:11:33;22.61;53.32
71514;DHT22;59335;46.652;21.272;2022-11-06T00:14:35;22.61;53.30
71514;DHT22;59335;46.652;21.272;2022-11-06T00:17:39;22.63;53.29
71514;DHT22;59335;46.652;21.272;2022-11-06T00:20:43;22.64;53.26
71514;DHT22;59335;46.652;21.272;2022-11-06T00:23:47;22.61;53.28
71514;DHT22;59335;46.652;21.272;2022-11-06T00:26:49;22.64;53.24
71514;DHT22;59335;46.652;21.272;2022-11-06T00:29:57;22.64;53.23
71514;DHT22;59335;46.652;21.272;2022-11-06T00:33:00;22.61;53.21
71514;DHT22;59335;46.652;21.272;2022-11-06T00:36:04;22.64;53.21
71514;DHT22;59335;46.652;21.272;2022-11-06T00:39:09;22.63;53.20
71514;DHT22;59335;46.652;21.272;2022-11-06T00:42:12;22.61;53.17
71514;DHT22;59335;46.652;21.272;2022-11-06T00:45:15;22.64;53.19
71514;DHT22;59335;46.652;21.272;2022-11-06T00:48:17;22.63;53.11
71514;DHT22;59335;46.652;21.272;2022-11-06T00:51:25;22.63;53.10
71514;DHT22;59335;46.652;21.272;2022-11-06T00:54:28;22.61;53.14
71514;DHT22;59335;46.652;21.272;2022-11-06T00:57:30;22.63;53.04
71514;DHT22;59335;46.652;21.272;2022-11-06T01:00:33;22.63;53.01
71514;DHT22;59335;46.652;21.272;2022-11-06T01:03:37;22.61;53.05
71514;DHT22;59335;46.652;21.272;2022-11-06T01:06:42;22.63;53.00
71514;DHT22;59335;46.652;21.272;2022-11-06T01:09:45;22.65;53.00
71514;DHT22;59335;46.652;21.272;2022-11-06T01:12:48;22.63;53.00
71514;DHT22;59335;46.652;21.272;2022-11-06T01:15:50;22.64;52.95
71514;DHT22;59335;46.652;21.272;2022-11-06T01:18:54;22.63;52.94
71514;DHT22;59335;46.652;21.272;2022-11-06T01:21:57;22.65;52.97
71514;DHT22;59335;46.652;21.272;2022-11-06T01:24:59;22.64;52.91
71514;DHT22;59335;46.652;21.272;2022-11-06T01:28:02;22.63;52.90
71514;DHT22;59335;46.652;21.272;2022-11-06T01:31:08;22.61;52.90
71514;DHT22;59335;46.652;21.272;2022-11-06T01:34:11;22.63;52.87
71514;DHT22;59335;46.652;21.272;2022-11-06T01:37:14;22.64;52.84
71514;DHT22;59335;46.652;21.272;2022-11-06T01:40:18;22.64;52.84
71514;DHT22;59335;46.652;21.272;2022-11-06T01:46:44;22.65;52.78
71514;DHT22;59335;46.652;21.272;2022-11-06T01:49:47;22.63;52.80
71514;DHT22;59335;46.652;21.272;2022-11-06T01:52:51;22.63;52.77
71514;DHT22;59335;46.652;21.272;2022-11-06T01:55:57;22.64;52.76
71514;DHT22;59335;46.652;21.272;2022-11-06T01:59:02;22.65;52.75
71514;DHT22;59335;46.652;21.272;2022-11-06T02:02:04;22.65;52.73
71514;DHT22;59335;46.652;21.272;2022-11-06T02:05:08;22.64;52.70
71514;DHT22;59335;46.652;21.272;2022-11-06T02:08:13;22.64;52.68
71514;DHT22;59335;46.652;21.272;2022-11-06T02:11:16;22.64;52.74
71514;DHT22;59335;46.652;21.272;2022-11-06T02:14:39;22.65;52.71
71514;DHT22;59335;46.652;21.272;2022-11-06T02:27:55;22.63;52.64
71514;DHT22;59335;46.652;21.272;2022-11-06T02:31:09;22.63;52.61
71514;DHT22;59335;46.652;21.272;2022-11-06T02:34:15;22.63;52.61
71514;DHT22;59335;46.652;21.272;2022-11-06T02:37:25;22.64;52.55
71514;DHT22;59335;46.652;21.272;2022-11-06T02:40:32;22.65;52.54
71514;DHT22;59335;46.652;21.272;2022-11-06T02:43:42;22.61;52.52
71514;DHT22;59335;46.652;21.272;2022-11-06T02:46:56;22.64;52.55
71514;DHT22;59335;46.652;21.272;2022-11-06T02:53:07;22.63;52.50
71514;DHT22;59335;46.652;21.272;2022-11-06T02:56:14;22.65;52.47
71514;DHT22;59335;46.652;21.272;2022-11-06T02:59:22;22.64;52.45
71514;DHT22;59335;46.652;21.272;2022-11-06T03:02:30;22.64;52.45
71514;DHT22;59335;46.652;21.272;2022-11-06T03:05:43;22.61;52.44
71514;DHT22;59335;46.652;21.272;2022-11-06T03:08:55;22.64;52.42
71514;DHT22;59335;46.652;21.272;2022-11-06T03:12:25;22.64;52.39
71514;DHT22;59335;46.652;21.272;2022-11-06T03:15:33;22.63;52.42
71514;DHT22;59335;46.652;21.272;2022-11-06T03:18:56;22.63;52.39
71514;DHT22;59335;46.652;21.272;2022-11-06T03:22:06;22.63;52.32
71514;DHT22;59335;46.652;21.272;2022-11-06T03:25:19;22.65;52.32
71514;DHT22;59335;46.652;21.272;2022-11-06T03:28:38;22.64;52.31
71514;DHT22;59335;46.652;21.272;2022-11-06T03:31:53;22.64;52.31
71514;DHT22;59335;46.652;21.272;2022-11-06T03:35:12;22.64;52.25
71514;DHT22;59335;46.652;21.272;2022-11-06T03:38:39;22.63;52.26
71514;DHT22;59335;46.652;21.272;2022-11-06T03:41:50;22.63;52.25
71514;DHT22;59335;46.652;21.272;2022-11-06T03:45:08;22.65;52.21
71514;DHT22;59335;46.652;21.272;2022-11-06T03:51:39;22.64;52.21
71514;DHT22;59335;46.652;21.272;2022-11-06T03:54:48;22.64;52.17
71514;DHT22;59335;46.652;21.272;2022-11-06T03:58:21;22.63;52.18
71514;DHT22;59335;46.652;21.272;2022-11-06T04:01:27;22.64;52.16
71514;DHT22;59335;46.652;21.272;2022-11-06T04:04:37;22.64;52.16
71514;DHT22;59335;46.652;21.272;2022-11-06T04:07:44;22.63;52.14
71514;DHT22;59335;46.652;21.272;2022-11-06T04:11:09;22.65;52.06
71514;DHT22;59335;46.652;21.272;2022-11-06T04:14:35;22.63;52.09
71514;DHT22;59335;46.652;21.272;2022-11-06T04:17:39;22.63;52.04
71514;DHT22;59335;46.652;21.272;2022-11-06T04:21:16;22.63;52.06
71514;DHT22;59335;46.652;21.272;2022-11-06T04:28:21;22.63;52.02
71514;DHT22;59335;46.652;21.272;2022-11-06T04:34:39;22.63;52.05
71514;DHT22;59335;46.652;21.272;2022-11-06T04:47:34;22.65;51.94
71514;DHT22;59335;46.652;21.272;2022-11-06T04:50:47;22.64;51.89
71514;DHT22;59335;46.652;21.272;2022-11-06T04:53:52;22.63;51.89
71514;DHT22;59335;46.652;21.272;2022-11-06T04:56:58;22.64;51.88
71514;DHT22;59335;46.652;21.272;2022-11-06T05:00:02;22.65;51.84
71514;DHT22;59335;46.652;21.272;2022-11-06T05:03:06;22.64;51.89
71514;DHT22;59335;46.652;21.272;2022-11-06T05:06:08;22.64;51.92
71514;DHT22;59335;46.652;21.272;2022-11-06T05:09:11;22.67;51.84
71514;DHT22;59335;46.652;21.272;2022-11-06T05:12:14;22.64;51.85
71514;DHT22;59335;46.652;21.272;2022-11-06T05:15:17;22.63;51.78
71514;DHT22;59335;46.652;21.272;2022-11-06T05:18:19;22.65;51.82
71514;DHT22;59335;46.652;21.272;2022-11-06T05:21:22;22.65;51.84
71514;DHT22;59335;46.652;21.272;2022-11-06T05:24:43;22.65;51.81
71514;DHT22;59335;46.652;21.272;2022-11-06T05:27:45;22.64;51.78
71514;DHT22;59335;46.652;21.272;2022-11-06T05:30:48;22.67;51.76
71514;DHT22;59335;46.652;21.272;2022-11-06T05:33:50;22.68;51.75
71514;DHT22;59335;46.652;21.272;2022-11-06T05:36:53;22.67;51.71
71514;DHT22;59335;46.652;21.272;2022-11-06T05:39:56;22.64;51.74
71514;DHT22;59335;46.652;21.272;2022-11-06T05:42:58;22.64;51.70
71514;DHT22;59335;46.652;21.272;2022-11-06T05:46:01;22.67;51.64
71514;DHT22;59335;46.652;21.272;2022-11-06T05:49:03;22.67;51.65
71514;DHT22;59335;46.652;21.272;2022-11-06T05:52:06;22.67;51.66
71514;DHT22;59335;46.652;21.272;2022-11-06T05:55:08;22.67;51.64
71514;DHT22;59335;46.652;21.272;2022-11-06T05:58:16;22.68;51.63
71514;DHT22;59335;46.652;21.272;2022-11-06T06:01:19;22.67;51.62
71514;DHT22;59335;46.652;21.272;2022-11-06T06:04:21;22.65;51.60
71514;DHT22;59335;46.652;21.272;2022-11-06T06:07:24;22.65;51.59
71514;DHT22;59335;46.652;21.272;2022-11-06T06:10:26;22.65;51.59
71514;DHT22;59335;46.652;21.272;2022-11-06T06:13:29;22.67;51.56
71514;DHT22;59335;46.652;21.272;2022-11-06T06:16:31;22.68;51.57
71514;DHT22;59335;46.652;21.272;2022-11-06T06:19:34;22.67;51.49
71514;DHT22;59335;46.652;21.272;2022-11-06T06:22:36;22.69;51.52
71514;DHT22;59335;46.652;21.272;2022-11-06T06:25:39;22.67;51.49
71514;DHT22;59335;46.652;21.272;2022-11-06T06:28:42;22.68;51.49
71514;DHT22;59335;46.652;21.272;2022-11-06T06:31:44;22.68;51.45
71514;DHT22;59335;46.652;21.272;2022-11-06T06:34:47;22.69;51.44
71514;DHT22;59335;46.652;21.272;2022-11-06T06:37:51;22.69;51.40
71514;DHT22;59335;46.652;21.272;2022-11-06T06:40:54;22.68;51.41
71514;DHT22;59335;46.652;21.272;2022-11-06T06:43:57;22.68;51.38
71514;DHT22;59335;46.652;21.272;2022-11-06T06:46:59;22.71;51.36
71514;DHT22;59335;46.652;21.272;2022-11-06T06:50:02;22.72;51.33
71514;DHT22;59335;46.652;21.272;2022-11-06T06:53:05;22.71;51.35
71514;DHT22;59335;46.652;21.272;2022-11-06T06:56:08;22.71;51.28
71514;DHT22;59335;46.652;21.272;2022-11-06T06:59:10;22.72;51.24
71514;DHT22;59335;46.652;21.272;2022-11-06T07:02:13;22.71;51.22
71514;DHT22;59335;46.652;21.272;2022-11-06T07:05:16;22.71;51.26
71514;DHT22;59335;46.652;21.272;2022-11-06T07:08:19;22.74;51.22
71514;DHT22;59335;46.652;21.272;2022-11-06T07:11:21;22.72;51.22
71514;DHT22;59335;46.652;21.272;2022-11-06T07:14:24;22.71;51.22
71514;DHT22;59335;46.652;21.272;2022-11-06T07:17:27;22.75;51.21
71514;DHT22;59335;46.652;21.272;2022-11-06T07:20:32;22.72;51.19
71514;DHT22;59335;46.652;21.272;2022-11-06T07:23:35;22.71;51.20
71514;DHT22;59335;46.652;21.272;2022-11-06T07:26:38;22.72;51.20
71514;DHT22;59335;46.652;21.272;2022-11-06T07:29:42;22.69;51.17
71514;DHT22;59335;46.652;21.272;2022-11-06T07:32:44;22.71;51.19
71514;DHT22;59335;46.652;21.272;2022-11-06T07:35:47;22.72;51.15
71514;DHT22;59335;46.652;21.272;2022-11-06T07:38:50;22.72;51.12
71514;DHT22;59335;46.652;21.272;2022-11-06T07:41:53;22.72;51.12
71514;DHT22;59335;46.652;21.272;2022-11-06T07:44:55;22.74;51.14
71514;DHT22;59335;46.652;21.272;2022-11-06T07:47:58;22.75;51.11
71514;DHT22;59335;46.652;21.272;2022-11-06T07:51:03;22.71;51.11
71514;DHT22;59335;46.652;21.272;2022-11-06T07:54:06;22.75;51.09
71514;DHT22;59335;46.652;21.272;2022-11-06T07:57:08;22.76;51.06
71514;DHT22;59335;46.652;21.272;2022-11-06T08:00:11;22.75;51.10
71514;DHT22;59335;46.652;21.272;2022-11-06T08:03:14;22.79;51.04
71514;DHT22;59335;46.652;21.272;2022-11-06T08:06:17;22.75;51.01
71514;DHT22;59335;46.652;21.272;2022-11-06T08:09:20;22.75;51.04
71514;DHT22;59335;46.652;21.272;2022-11-06T08:12:25;22.79;50.99
71514;DHT22;59335;46.652;21.272;2022-11-06T08:15:27;22.76;51.00
71514;DHT22;59335;46.652;21.272;2022-11-06T08:18:30;22.79;50.97
71514;DHT22;59335;46.652;21.272;2022-11-06T08:21:33;22.79;50.93
71514;DHT22;59335;46.652;21.272;2022-11-06T08:24:36;22.79;50.87
71514;DHT22;59335;46.652;21.272;2022-11-06T08:27:39;22.79;50.94
71514;DHT22;59335;46.652;21.272;2022-11-06T08:30:41;22.81;50.87
71514;DHT22;59335;46.652;21.272;2022-11-06T08:33:44;22.81;50.90
71514;DHT22;59335;46.652;21.272;2022-11-06T08:36:46;22.82;50.85
71514;DHT22;59335;46.652;21.272;2022-11-06T08:39:53;22.82;50.85
71514;DHT22;59335;46.652;21.272;2022-11-06T08:43:04;22.82;50.85
71514;DHT22;59335;46.652;21.272;2022-11-06T08:46:08;22.84;50.80
71514;DHT22;59335;46.652;21.272;2022-11-06T08:49:11;22.85;50.79
71514;DHT22;59335;46.652;21.272;2022-11-06T08:52:14;22.84;50.75
71514;DHT22;59335;46.652;21.272;2022-11-06T08:55:16;22.87;50.76
71514;DHT22;59335;46.652;21.272;2022-11-06T08:58:19;22.88;50.68
71514;DHT22;59335;46.652;21.272;2022-11-06T09:01:22;22.91;50.66
71514;DHT22;59335;46.652;21.272;2022-11-06T09:04:25;22.92;50.59
71514;DHT22;59335;46.652;21.272;2022-11-06T09:07:28;22.95;50.56
71514;DHT22;59335;46.652;21.272;2022-11-06T09:10:30;22.94;50.56
71514;DHT22;59335;46.652;21.272;2022-11-06T09:13:33;22.95;50.59
71514;DHT22;59335;46.652;21.272;2022-11-06T09:16:35;22.98;50.55
71514;DHT22;59335;46.652;21.272;2022-11-06T09:19:38;22.95;50.58
71514;DHT22;59335;46.652;21.272;2022-11-06T09:22:40;22.95;50.60
71514;DHT22;59335;46.652;21.272;2022-11-06T09:25:44;22.94;50.58
71514;DHT22;59335;46.652;21.272;2022-11-06T09:28:46;22.98;50.60
71514;DHT22;59335;46.652;21.272;2022-11-06T09:31:49;22.94;50.65
71514;DHT22;59335;46.652;21.272;2022-11-06T09:34:51;22.98;50.67
71514;DHT22;59335;46.652;21.272;2022-11-06T09:37:59;22.96;50.61
71514;DHT22;59335;46.652;21.272;2022-11-06T09:41:02;22.94;50.68
71514;DHT22;59335;46.652;21.272;2022-11-06T09:47:37;22.94;50.64
71514;DHT22;59335;46.652;21.272;2022-11-06T09:54:30;22.94;50.68
71514;DHT22;59335;46.652;21.272;2022-11-06T09:57:55;22.96;50.64
71514;DHT22;59335;46.652;21.272;2022-11-06T10:01:04;22.94;50.73
71514;DHT22;59335;46.652;21.272;2022-11-06T10:04:17;22.96;50.69
71514;DHT22;59335;46.652;21.272;2022-11-06T10:07:28;22.98;50.68
71514;DHT22;59335;46.652;21.272;2022-11-06T10:20:51;22.96;50.70
71514;DHT22;59335;46.652;21.272;2022-11-06T10:23:58;22.95;50.65
71514;DHT22;59335;46.652;21.272;2022-11-06T10:27:03;22.96;50.65
71514;DHT22;59335;46.652;21.272;2022-11-06T10:30:15;22.98;50.67
71514;DHT22;59335;46.652;21.272;2022-11-06T10:33:49;22.98;50.67
71514;DHT22;59335;46.652;21.272;2022-11-06T10:36:54;22.98;50.69
71514;DHT22;59335;46.652;21.272;2022-11-06T10:39:58;22.95;50.72
71514;DHT22;59335;46.652;21.272;2022-11-06T10:43:26;22.99;50.72
71514;DHT22;59335;46.652;21.272;2022-11-06T10:49:43;22.96;50.70
71514;DHT22;59335;46.652;21.272;2022-11-06T10:59:22;22.98;50.69
71514;DHT22;59335;46.652;21.272;2022-11-06T11:02:34;22.98;50.72
71514;DHT22;59335;46.652;21.272;2022-11-06T11:05:42;22.95;50.71
71514;DHT22;59335;46.652;21.272;2022-11-06T11:08:47;22.98;50.73
71514;DHT22;59335;46.652;21.272;2022-11-06T11:11:50;22.96;50.70
71514;DHT22;59335;46.652;21.272;2022-11-06T11:15:12;22.98;50.74
71514;DHT22;59335;46.652;21.272;2022-11-06T11:18:18;22.94;50.77
71514;DHT22;59335;46.652;21.272;2022-11-06T11:21:25;22.98;50.72
71514;DHT22;59335;46.652;21.272;2022-11-06T11:24:29;22.96;50.70
71514;DHT22;59335;46.652;21.272;2022-11-06T11:27:40;22.99;50.68
71514;DHT22;59335;46.652;21.272;2022-11-06T11:30:50;22.96;50.75
71514;DHT22;59335;46.652;21.272;2022-11-06T11:33:55;22.98;50.72
71514;DHT22;59335;46.652;21.272;2022-11-06T11:37:04;22.99;50.70
71514;DHT22;59335;46.652;21.272;2022-11-06T11:40:34;22.98;50.71
71514;DHT22;59335;46.652;21.272;2022-11-06T11:43:39;22.99;50.68
71514;DHT22;59335;46.652;21.272;2022-11-06T11:46:51;22.98;50.68
71514;DHT22;59335;46.652;21.272;2022-11-06T11:49:54;22.99;50.65
71514;DHT22;59335;46.652;21.272;2022-11-06T11:53:02;22.98;50.67
71514;DHT22;59335;46.652;21.272;2022-11-06T11:56:17;22.99;50.67
71514;DHT22;59335;46.652;21.272;2022-11-06T11:59:47;22.99;50.71
71514;DHT22;59335;46.652;21.272;2022-11-06T12:06:09;23.01;50.68
71514;DHT22;59335;46.652;21.272;2022-11-06T12:09:13;22.99;50.72
71514;DHT22;59335;46.652;21.272;2022-11-06T12:12:22;23.01;50.75
71514;DHT22;59335;46.652;21.272;2022-11-06T12:19:06;23.01;50.70
71514;DHT22;59335;46.652;21.272;2022-11-06T12:22:17;22.98;50.74
71514;DHT22;59335;46.652;21.272;2022-11-06T12:25:38;22.99;50.71
71514;DHT22;59335;46.652;21.272;2022-11-06T12:28:46;23.01;50.71
71514;DHT22;59335;46.652;21.272;2022-11-06T12:35:30;23.01;50.71
71514;DHT22;59335;46.652;21.272;2022-11-06T12:38:56;23.02;50.72
71514;DHT22;59335;46.652;21.272;2022-11-06T12:42:03;23.01;50.72
71514;DHT22;59335;46.652;21.272;2022-11-06T12:45:10;23.02;50.68
71514;DHT22;59335;46.652;21.272;2022-11-06T12:48:18;23.02;50.70
71514;DHT22;59335;46.652;21.272;2022-11-06T12:58:21;22.99;50.72
71514;DHT22;59335;46.652;21.272;2022-11-06T13:01:53;23.01;50.68
71514;DHT22;59335;46.652;21.272;2022-11-06T13:05:14;22.99;50.73
71514;DHT22;59335;46.652;21.272;2022-11-06T13:12:14;22.99;50.71
71514;DHT22;59335;46.652;21.272;2022-11-06T13:18:39;22.99;50.71
71514;DHT22;59335;46.652;21.272;2022-11-06T13:31:37;22.99;50.76
71514;DHT22;59335;46.652;21.272;2022-11-06T13:34:45;22.99;50.70
71514;DHT22;59335;46.652;21.272;2022-11-06T13:37:51;23.02;50.68
71514;DHT22;59335;46.652;21.272;2022-11-06T13:41:00;23.01;50.71
71514;DHT22;59335;46.652;21.272;2022-11-06T13:44:08;22.99;50.75
71514;DHT22;59335;46.652;21.272;2022-11-06T13:51:12;23.01;50.72
71514;DHT22;59335;46.652;21.272;2022-11-06T14:08:59;23.01;50.74
71514;DHT22;59335;46.652;21.272;2022-11-06T14:12:07;22.99;50.77
71514;DHT22;59335;46.652;21.272;2022-11-06T14:15:25;22.99;50.74
71514;DHT22;59335;46.652;21.272;2022-11-06T14:18:31;22.99;50.76
71514;DHT22;59335;46.652;21.272;2022-11-06T14:24:40;22.96;50.77
71514;DHT22;59335;46.652;21.272;2022-11-06T14:30:51;22.99;50.78
71514;DHT22;59335;46.652;21.272;2022-11-06T14:34:32;22.98;50.80
71514;DHT22;59335;46.652;21.272;2022-11-06T14:40:45;22.98;50.77
71514;DHT22;59335;46.652;21.272;2022-11-06T14:43:50;22.99;50.80
71514;DHT22;59335;46.652;21.272;2022-11-06T14:46:58;22.98;50.82
71514;DHT22;59335;46.652;21.272;2022-11-06T14:50:22;22.99;50.75
71514;DHT22;59335;46.652;21.272;2022-11-06T14:53:38;22.98;50.74
71514;DHT22;59335;46.652;21.272;2022-11-06T14:56:52;23.01;50.73
71514;DHT22;59335;46.652;21.272;2022-11-06T14:59:57;22.96;50.73
71514;DHT22;59335;46.652;21.272;2022-11-06T15:03:02;22.96;50.72
71514;DHT22;59335;46.652;21.272;2022-11-06T15:13:32;22.96;50.68
71514;DHT22;59335;46.652;21.272;2022-11-06T15:16:12;22.99;50.71
71514;DHT22;59335;46.652;21.272;2022-11-06T15:19:29;22.98;50.70
71514;DHT22;59335;46.652;21.272;2022-11-06T15:22:40;22.99;50.74
71514;DHT22;59335;46.652;21.272;2022-11-06T15:25:50;22.98;50.75
71514;DHT22;59335;46.652;21.272;2022-11-06T15:32:29;22.99;50.64
71514;DHT22;59335;46.652;21.272;2022-11-06T15:35:34;22.99;50.74
71514;DHT22;59335;46.652;21.272;2022-11-06T15:38:40;22.96;50.72
71514;DHT22;59335;46.652;21.272;2022-11-06T15:41:44;22.98;50.67
71514;DHT22;59335;46.652;21.272;2022-11-06T15:44:48;22.99;50.68
71514;DHT22;59335;46.652;21.272;2022-11-06T15:48:16;22.96;50.69
71514;DHT22;59335;46.652;21.272;2022-11-06T15:51:26;22.98;50.71
71514;DHT22;59335;46.652;21.272;2022-11-06T15:54:39;22.99;50.73
71514;DHT22;59335;46.652;21.272;2022-11-06T15:57:43;22.96;50.75
71514;DHT22;59335;46.652;21.272;2022-11-06T16:00:46;22.99;50.64
71514;DHT22;59335;46.652;21.272;2022-11-06T16:03:52;22.99;50.72
71514;DHT22;59335;46.652;21.272;2022-11-06T16:06:58;22.98;50.70
71514;DHT22;59335;46.652;21.272;2022-11-06T16:10:03;22.94;50.71
71514;DHT22;59335;46.652;21.272;2022-11-06T16:13:11;22.99;50.70
71514;DHT22;59335;46.652;21.272;2022-11-06T16:16:35;22.98;50.67
71514;DHT22;59335;46.652;21.272;2022-11-06T16:19:43;22.98;50.74
71514;DHT22;59335;46.652;21.272;2022-11-06T16:22:49;22.99;50.69
71514;DHT22;59335;46.652;21.272;2022-11-06T16:26:03;22.98;50.67
71514;DHT22;59335;46.652;21.272;2022-11-06T16:29:23;22.98;50.69
71514;DHT22;59335;46.652;21.272;2022-11-06T16:32:30;23.01;50.68
71514;DHT22;59335;46.652;21.272;2022-11-06T16:35:35;22.99;50.68
71514;DHT22;59335;46.652;21.272;2022-11-06T16:38:42;22.95;50.72
71514;DHT22;59335;46.652;21.272;2022-11-06T16:42:26;22.98;50.67
71514;DHT22;59335;46.652;21.272;2022-11-06T16:45:31;22.99;50.66
71514;DHT22;59335;46.652;21.272;2022-11-06T16:48:37;22.96;50.62
71514;DHT22;59335;46.652;21.272;2022-11-06T16:51:42;22.96;50.65
71514;DHT22;59335;46.652;21.272;2022-11-06T16:54:53;22.98;50.64
71514;DHT22;59335;46.652;21.272;2022-11-06T16:57:59;22.95;50.63
71514;DHT22;59335;46.652;21.272;2022-11-06T17:01:05;22.99;50.63
71514;DHT22;59335;46.652;21.272;2022-11-06T17:04:21;22.98;50.61
71514;DHT22;59335;46.652;21.272;2022-11-06T17:07:26;22.99;50.61
71514;DHT22;59335;46.652;21.272;2022-11-06T17:13:48;22.98;50.59
71514;DHT22;59335;46.652;21.272;2022-11-06T17:16:56;22.99;50.63
71514;DHT22;59335;46.652;21.272;2022-11-06T17:20:12;22.99;50.61
71514;DHT22;59335;46.652;21.272;2022-11-06T17:23:18;22.99;50.61
71514;DHT22;59335;46.652;21.272;2022-11-06T17:26:26;23.01;50.57
71514;DHT22;59335;46.652;21.272;2022-11-06T17:29:30;22.99;50.57
71514;DHT22;59335;46.652;21.272;2022-11-06T17:32:35;22.99;50.58
71514;DHT22;59335;46.652;21.272;2022-11-06T17:35:40;22.98;50.55
71514;DHT22;59335;46.652;21.272;2022-11-06T17:38:45;23.01;50.57
71514;DHT22;59335;46.652;21.272;2022-11-06T17:41:50;22.99;50.56
71514;DHT22;59335;46.652;21.272;2022-11-06T17:44:55;23.01;50.57
71514;DHT22;59335;46.652;21.272;2022-11-06T17:47:59;22.99;50.58
71514;DHT22;59335;46.652;21.272;2022-11-06T17:51:03;23.01;50.63
71514;DHT22;59335;46.652;21.272;2022-11-06T17:54:30;22.98;50.62
71514;DHT22;59335;46.652;21.272;2022-11-06T17:57:39;22.96;50.62
71514;DHT22;59335;46.652;21.272;2022-11-06T18:00:42;22.99;50.61
71514;DHT22;59335;46.652;21.272;2022-11-06T18:03:47;22.98;50.59
71514;DHT22;59335;46.652;21.272;2022-11-06T18:06:52;22.98;50.61
71514;DHT22;59335;46.652;21.272;2022-11-06T18:09:56;22.98;50.57
71514;DHT22;59335;46.652;21.272;2022-11-06T18:13:01;22.98;50.62
71514;DHT22;59335;46.652;21.272;2022-11-06T18:16:33;23.01;50.62
71514;DHT22;59335;46.652;21.272;2022-11-06T18:19:45;22.99;50.58
71514;DHT22;59335;46.652;21.272;2022-11-06T18:22:48;23.02;50.53
71514;DHT22;59335;46.652;21.272;2022-11-06T18:25:55;23.01;50.56
71514;DHT22;59335;46.652;21.272;2022-11-06T18:28:59;22.98;50.58
71514;DHT22;59335;46.652;21.272;2022-11-06T18:32:06;22.99;50.57
71514;DHT22;59335;46.652;21.272;2022-11-06T18:35:09;22.98;50.63
71514;DHT22;59335;46.652;21.272;2022-11-06T18:38:13;23.01;50.54
71514;DHT22;59335;46.652;21.272;2022-11-06T18:41:19;22.98;50.53
71514;DHT22;59335;46.652;21.272;2022-11-06T18:44:24;23.01;50.51
71514;DHT22;59335;46.652;21.272;2022-11-06T18:47:29;22.96;50.57
71514;DHT22;59335;46.652;21.272;2022-11-06T18:50:34;22.99;50.51
71514;DHT22;59335;46.652;21.272;2022-11-06T18:53:39;22.99;50.52
71514;DHT22;59335;46.652;21.272;2022-11-06T18:56:44;22.99;50.47
71514;DHT22;59335;46.652;21.272;2022-11-06T18:59:47;22.98;50.48
71514;DHT22;59335;46.652;21.272;2022-11-06T19:02:53;23.01;50.48
71514;DHT22;59335;46.652;21.272;2022-11-06T19:05:57;23.01;50.46
71514;DHT22;59335;46.652;21.272;2022-11-06T19:09:01;22.99;50.48
71514;DHT22;59335;46.652;21.272;2022-11-06T19:12:10;22.98;50.53
71514;DHT22;59335;46.652;21.272;2022-11-06T19:15:17;22.99;50.47
71514;DHT22;59335;46.652;21.272;2022-11-06T19:18:21;23.01;50.49
71514;DHT22;59335;46.652;21.272;2022-11-06T19:21:25;22.99;50.45
71514;DHT22;59335;46.652;21.272;2022-11-06T19:24:31;23.01;50.41
71514;DHT22;59335;46.652;21.272;2022-11-06T19:27:36;22.99;50.39
71514;DHT22;59335;46.652;21.272;2022-11-06T19:30:41;22.99;50.41
71514;DHT22;59335;46.652;21.272;2022-11-06T19:33:44;23.01;50.48
71514;DHT22;59335;46.652;21.272;2022-11-06T19:36:48;22.99;50.40
71514;DHT22;59335;46.652;21.272;2022-11-06T19:39:54;23.01;50.45
71514;DHT22;59335;46.652;21.272;2022-11-06T19:43:02;22.99;50.43
71514;DHT22;59335;46.652;21.272;2022-11-06T19:46:06;22.99;50.40
71514;DHT22;59335;46.652;21.272;2022-11-06T19:49:10;22.99;50.44
71514;DHT22;59335;46.652;21.272;2022-11-06T19:52:15;23.01;50.43
71514;DHT22;59335;46.652;21.272;2022-11-06T19:55:40;22.99;50.41
71514;DHT22;59335;46.652;21.272;2022-11-06T19:58:44;23.01;50.44
71514;DHT22;59335;46.652;21.272;2022-11-06T20:01:50;23.02;50.41
71514;DHT22;59335;46.652;21.272;2022-11-06T20:04:53;22.99;50.36
71514;DHT22;59335;46.652;21.272;2022-11-06T20:07:58;22.98;50.42
71514;DHT22;59335;46.652;21.272;2022-11-06T20:11:08;22.98;50.37
71514;DHT22;59335;46.652;21.272;2022-11-06T20:14:16;22.98;50.35
71514;DHT22;59335;46.652;21.272;2022-11-06T20:17:24;22.99;50.37
71514;DHT22;59335;46.652;21.272;2022-11-06T20:20:29;22.96;50.37
71514;DHT22;59335;46.652;21.272;2022-11-06T20:23:38;23.01;50.31
71514;DHT22;59335;46.652;21.272;2022-11-06T20:26:45;22.99;50.34
71514;DHT22;59335;46.652;21.272;2022-11-06T20:29:53;22.99;50.36
71514;DHT22;59335;46.652;21.272;2022-11-06T20:32:56;22.99;50.36
71514;DHT22;59335;46.652;21.272;2022-11-06T20:36:12;22.99;50.33
71514;DHT22;59335;46.652;21.272;2022-11-06T20:39:17;22.99;50.32
71514;DHT22;59335;46.652;21.272;2022-11-06T20:42:22;22.99;50.28
71514;DHT22;59335;46.652;21.272;2022-11-06T20:45:35;23.02;50.23
71514;DHT22;59335;46.652;21.272;2022-11-06T20:48:40;22.99;50.26
71514;DHT22;59335;46.652;21.272;2022-11-06T20:51:47;22.98;50.23
71514;DHT22;59335;46.652;21.272;2022-11-06T20:55:14;23.02;50.19
71514;DHT22;59335;46.652;21.272;2022-11-06T20:58:18;23.01;50.23
71514;DHT22;59335;46.652;21.272;2022-11-06T21:01:24;22.99;50.21
71514;DHT22;59335;46.652;21.272;2022-11-06T21:04:30;22.99;50.21
71514;DHT22;59335;46.652;21.272;2022-11-06T21:07:33;22.99;50.18
71514;DHT22;59335;46.652;21.272;2022-11-06T21:10:37;22.98;50.21
71514;DHT22;59335;46.652;21.272;2022-11-06T21:13:43;22.96;50.22
71514;DHT22;59335;46.652;21.272;2022-11-06T21:16:47;22.98;50.19
71514;DHT22;59335;46.652;21.272;2022-11-06T21:19:51;22.98;50.23
71514;DHT22;59335;46.652;21.272;2022-11-06T21:22:54;23.02;50.18
71514;DHT22;59335;46.652;21.272;2022-11-06T21:26:13;22.98;50.19
71514;DHT22;59335;46.652;21.272;2022-11-06T21:29:21;23.01;50.18
71514;DHT22;59335;46.652;21.272;2022-11-06T21:32:25;22.98;50.19
71514;DHT22;59335;46.652;21.272;2022-11-06T21:35:29;22.99;50.19
71514;DHT22;59335;46.652;21.272;2022-11-06T21:38:31;22.99;50.14
71514;DHT22;59335;46.652;21.272;2022-11-06T21:41:35;22.99;50.17
71514;DHT22;59335;46.652;21.272;2022-11-06T21:44:38;22.99;50.18